Time,TemperatureF,DewpointF,PressureIn,WindDirection,WindDirectionDegrees,WindSpeedMPH,WindSpeedGustMPH,Humidity,HourlyPrecipIn,Conditions,Clouds,dailyrainin,SoftwareType,DateUTC
2013-07-25 00:12:00,76.0,74.0,-100.00,WNW,291,5.0,17.0,93,0.03,,,0.03,,2013-07-25 05:12:00,
2013-07-25 00:22:00,76.0,74.0,-100.00,WNW,291,5.0,17.0,93,0.03,,,0.03,,2013-07-25 05:22:00,
2013-07-25 00:32:00,76.0,74.0,-100.00,WNW,291,5.0,17.0,93,0.03,,,0.03,,2013-07-25 05:32:00,
2013-07-25 00:43:00,76.0,74.0,-100.00,WNW,291,5.0,17.0,93,0.03,,,0.03,,2013-07-25 05:43:00,
2013-07-25 01:12:00,71.0,70.0,-100.00,NNE,15,0.0,14.0,97,0.17,,,0.20,,2013-07-25 06:12:00,
2013-07-25 01:22:00,71.0,70.0,-100.00,NNE,15,0.0,14.0,97,0.17,,,0.20,,2013-07-25 06:22:00,
2013-07-25 01:32:00,71.0,70.0,-100.00,NNE,15,0.0,14.0,97,0.17,,,0.20,,2013-07-25 06:32:00,
2013-07-25 01:42:00,71.0,70.0,-100.00,NNE,15,0.0,14.0,97,0.17,,,0.20,,2013-07-25 06:42:00,
2013-07-25 02:12:00,71.0,70.0,-100.00,NW,325,1.0,1.0,98,0.00,,,0.20,,2013-07-25 07:12:00,
2013-07-25 02:22:00,71.0,70.0,-100.00,NW,325,1.0,1.0,98,0.00,,,0.20,,2013-07-25 07:22:00,
2013-07-25 02:33:00,71.0,70.0,-100.00,NW,325,1.0,1.0,98,0.00,,,0.20,,2013-07-25 07:33:00,
2013-07-25 02:43:00,71.0,70.0,-100.00,NW,325,1.0,1.0,98,0.00,,,0.20,,2013-07-25 07:43:00,
2013-07-25 03:12:00,71.0,70.0,-100.00,WNW,293,1.0,1.0,98,0.00,,,0.20,,2013-07-25 08:12:00,
2013-07-25 03:22:00,71.0,70.0,-100.00,WNW,293,1.0,1.0,98,0.00,,,0.20,,2013-07-25 08:22:00,
2013-07-25 03:32:00,71.0,70.0,-100.00,WNW,293,1.0,1.0,98,0.00,,,0.20,,2013-07-25 08:32:00,
2013-07-25 03:44:00,71.0,70.0,-100.00,WNW,293,1.0,1.0,98,0.00,,,0.20,,2013-07-25 08:44:00,
2013-07-25 04:12:00,70.0,69.0,-100.00,WNW,291,2.0,4.0,98,0.00,,,0.20,,2013-07-25 09:12:00,
2013-07-25 04:22:00,70.0,69.0,-100.00,WNW,291,2.0,4.0,98,0.00,,,0.20,,2013-07-25 09:22:00,
2013-07-25 04:33:00,70.0,69.0,-100.00,WNW,291,2.0,4.0,98,0.00,,,0.20,,2013-07-25 09:33:00,
2013-07-25 04:43:00,70.0,69.0,-100.00,WNW,291,2.0,4.0,98,0.00,,,0.20,,2013-07-25 09:43:00,
2013-07-25 05:12:00,71.0,71.0,-100.00,WNW,295,2.0,4.0,99,0.01,,,0.21,,2013-07-25 10:12:00,
2013-07-25 05:22:00,71.0,71.0,-100.00,WNW,295,2.0,4.0,99,0.01,,,0.21,,2013-07-25 10:22:00,
2013-07-25 05:32:00,71.0,71.0,-100.00,WNW,295,2.0,4.0,99,0.01,,,0.21,,2013-07-25 10:32:00,
2013-07-25 05:42:00,71.0,71.0,-100.00,WNW,295,2.0,4.0,99,0.01,,,0.21,,2013-07-25 10:42:00,
2013-07-25 06:12:00,71.0,71.0,-100.00,NW,309,2.0,5.0,99,0.00,,,0.21,,2013-07-25 11:12:00,
2013-07-25 06:22:00,71.0,71.0,-100.00,NW,309,2.0,5.0,99,0.00,,,0.21,,2013-07-25 11:22:00,
2013-07-25 06:32:00,71.0,71.0,-100.00,NW,309,2.0,5.0,99,0.00,,,0.21,,2013-07-25 11:32:00,
2013-07-25 06:43:00,71.0,71.0,-100.00,NW,309,2.0,5.0,99,0.00,,,0.21,,2013-07-25 11:43:00,
2013-07-25 07:12:00,72.0,72.0,-100.00,NW,306,2.0,4.0,99,0.00,,,0.21,,2013-07-25 12:12:00,
2013-07-25 07:22:00,72.0,72.0,-100.00,NW,306,2.0,4.0,99,0.00,,,0.21,,2013-07-25 12:22:00,
2013-07-25 07:32:00,72.0,72.0,-100.00,NW,306,2.0,4.0,99,0.00,,,0.21,,2013-07-25 12:32:00,
2013-07-25 07:45:00,72.0,72.0,-100.00,NW,306,2.0,4.0,99,0.00,,,0.21,,2013-07-25 12:45:00,
2013-07-25 08:12:00,73.0,73.0,-100.00,West,268,2.0,5.0,99,0.00,,,0.21,,2013-07-25 13:12:00,
2013-07-25 08:22:00,73.0,73.0,-100.00,West,268,2.0,5.0,99,0.00,,,0.21,,2013-07-25 13:22:00,
2013-07-25 08:33:00,73.0,73.0,-100.00,West,268,2.0,5.0,99,0.00,,,0.21,,2013-07-25 13:33:00,
2013-07-25 08:43:00,73.0,73.0,-100.00,West,268,2.0,5.0,99,0.00,,,0.21,,2013-07-25 13:43:00,
2013-07-25 09:12:00,77.0,76.0,-100.00,WNW,283,2.0,7.0,97,0.00,,,0.21,,2013-07-25 14:12:00,
2013-07-25 09:22:00,77.0,76.0,-100.00,WNW,283,2.0,7.0,97,0.00,,,0.21,,2013-07-25 14:22:00,
2013-07-25 09:33:00,77.0,76.0,-100.00,WNW,283,2.0,7.0,97,0.00,,,0.21,,2013-07-25 14:33:00,
2013-07-25 09:43:00,77.0,76.0,-100.00,WNW,283,2.0,7.0,97,0.00,,,0.21,,2013-07-25 14:43:00,
2013-07-25 10:12:00,81.0,73.0,-100.00,NW,307,4.0,6.0,76,0.00,,,0.21,,2013-07-25 15:12:00,
2013-07-25 10:22:00,81.0,73.0,-100.00,NW,307,4.0,6.0,76,0.00,,,0.21,,2013-07-25 15:22:00,
2013-07-25 10:32:00,81.0,73.0,-100.00,NW,307,4.0,6.0,76,0.00,,,0.21,,2013-07-25 15:32:00,
2013-07-25 10:44:00,81.0,73.0,-100.00,NW,307,4.0,6.0,76,0.00,,,0.21,,2013-07-25 15:44:00,
2013-07-25 11:12:00,85.0,75.0,-100.00,WNW,284,2.0,8.0,71,0.00,,,0.21,,2013-07-25 16:12:00,
2013-07-25 11:22:00,85.0,75.0,-100.00,WNW,284,2.0,8.0,71,0.00,,,0.21,,2013-07-25 16:22:00,
2013-07-25 11:33:00,85.0,75.0,-100.00,WNW,284,2.0,8.0,71,0.00,,,0.21,,2013-07-25 16:33:00,
2013-07-25 11:45:00,85.0,75.0,-100.00,WNW,284,2.0,8.0,71,0.00,,,0.21,,2013-07-25 16:45:00,
2013-07-25 12:12:00,89.0,76.0,-100.00,WNW,301,3.0,10.0,66,0.00,,,0.21,,2013-07-25 17:12:00,
2013-07-25 12:22:00,89.0,76.0,-100.00,WNW,301,3.0,10.0,66,0.00,,,0.21,,2013-07-25 17:22:00,
2013-07-25 12:32:00,89.0,76.0,-100.00,WNW,301,3.0,10.0,66,0.00,,,0.21,,2013-07-25 17:32:00,
2013-07-25 12:43:00,89.0,76.0,-100.00,WNW,301,3.0,10.0,66,0.00,,,0.21,,2013-07-25 17:43:00,
2013-07-25 13:12:00,87.0,71.0,-100.00,NW,310,4.0,9.0,60,0.00,,,0.21,,2013-07-25 18:12:00,
2013-07-25 13:22:00,87.0,71.0,-100.00,NW,310,4.0,9.0,60,0.00,,,0.21,,2013-07-25 18:22:00,
2013-07-25 13:33:00,87.0,71.0,-100.00,NW,310,4.0,9.0,60,0.00,,,0.21,,2013-07-25 18:33:00,
2013-07-25 13:43:00,87.0,71.0,-100.00,NW,310,4.0,9.0,60,0.00,,,0.21,,2013-07-25 18:43:00,
2013-07-25 14:12:00,90.0,75.0,-100.00,WNW,302,5.0,10.0,61,0.00,,,0.21,,2013-07-25 19:12:00,
2013-07-25 14:22:00,90.0,75.0,-100.00,WNW,302,5.0,10.0,61,0.00,,,0.21,,2013-07-25 19:22:00,
2013-07-25 14:33:00,90.0,75.0,-100.00,WNW,302,5.0,10.0,61,0.00,,,0.21,,2013-07-25 19:33:00,
2013-07-25 14:43:00,90.0,75.0,-100.00,WNW,302,5.0,10.0,61,0.00,,,0.21,,2013-07-25 19:43:00,
2013-07-25 15:12:00,91.0,72.0,-100.00,NE,41,2.0,8.0,54,0.00,,,0.21,,2013-07-25 20:12:00,
2013-07-25 15:22:00,91.0,72.0,-100.00,NE,41,2.0,8.0,54,0.00,,,0.21,,2013-07-25 20:22:00,
2013-07-25 15:32:00,91.0,72.0,-100.00,NE,41,2.0,8.0,54,0.00,,,0.21,,2013-07-25 20:32:00,
2013-07-25 15:43:00,91.0,72.0,-100.00,NE,41,2.0,8.0,54,0.00,,,0.21,,2013-07-25 20:43:00,
2013-07-25 16:12:00,93.0,73.0,-100.00,NW,307,3.0,7.0,52,0.00,,,0.21,,2013-07-25 21:12:00,
2013-07-25 16:22:00,93.0,73.0,-100.00,NW,307,3.0,7.0,52,0.00,,,0.21,,2013-07-25 21:22:00,
2013-07-25 16:32:00,93.0,73.0,-100.00,NW,307,3.0,7.0,52,0.00,,,0.21,,2013-07-25 21:32:00,
2013-07-25 16:44:00,93.0,73.0,-100.00,NW,307,3.0,7.0,52,0.00,,,0.21,,2013-07-25 21:44:00,
2013-07-25 17:12:00,95.0,73.0,-100.00,NW,313,3.0,10.0,49,0.00,,,0.21,,2013-07-25 22:12:00,
2013-07-25 17:22:00,95.0,73.0,-100.00,NW,313,3.0,10.0,49,0.00,,,0.21,,2013-07-25 22:22:00,
2013-07-25 17:32:00,95.0,73.0,-100.00,NW,313,3.0,10.0,49,0.00,,,0.21,,2013-07-25 22:32:00,
2013-07-25 17:43:00,95.0,73.0,-100.00,NW,313,3.0,10.0,49,0.00,,,0.21,,2013-07-25 22:43:00,
2013-07-25 18:12:00,94.0,73.0,-100.00,NW,304,3.0,8.0,51,0.00,,,0.21,,2013-07-25 23:12:00,
2013-07-25 18:22:00,94.0,73.0,-100.00,NW,304,3.0,8.0,51,0.00,,,0.21,,2013-07-25 23:22:00,
2013-07-25 18:32:00,94.0,73.0,-100.00,NW,304,3.0,8.0,51,0.00,,,0.21,,2013-07-25 23:32:00,
2013-07-25 18:43:00,94.0,73.0,-100.00,NW,304,3.0,8.0,51,0.00,,,0.21,,2013-07-25 23:43:00,
2013-07-25 19:12:00,92.0,72.0,-100.00,North,349,2.0,9.0,52,0.00,,,0.21,,2013-07-26 00:12:00,
2013-07-25 19:22:00,92.0,72.0,-100.00,North,349,2.0,9.0,52,0.00,,,0.21,,2013-07-26 00:22:00,
2013-07-25 19:33:00,92.0,72.0,-100.00,North,349,2.0,9.0,52,0.00,,,0.21,,2013-07-26 00:33:00,
2013-07-25 19:43:00,92.0,72.0,-100.00,North,349,2.0,9.0,52,0.00,,,0.21,,2013-07-26 00:43:00,
2013-07-25 20:12:00,82.0,73.0,-100.00,NW,305,0.0,3.0,74,0.00,,,0.21,,2013-07-26 01:12:00,
2013-07-25 20:22:00,82.0,73.0,-100.00,NW,305,0.0,3.0,74,0.00,,,0.21,,2013-07-26 01:22:00,
2013-07-25 20:32:00,82.0,73.0,-100.00,NW,305,0.0,3.0,74,0.00,,,0.21,,2013-07-26 01:32:00,
2013-07-25 20:43:00,82.0,73.0,-100.00,NW,305,0.0,3.0,74,0.00,,,0.21,,2013-07-26 01:43:00,
2013-07-25 21:12:00,76.0,74.0,-100.00,West,281,0.0,1.0,93,0.00,,,0.21,,2013-07-26 02:12:00,
2013-07-25 21:22:00,76.0,74.0,-100.00,West,281,0.0,1.0,93,0.00,,,0.21,,2013-07-26 02:22:00,
2013-07-25 21:32:00,76.0,74.0,-100.00,West,281,0.0,1.0,93,0.00,,,0.21,,2013-07-26 02:32:00,
2013-07-25 21:43:00,76.0,74.0,-100.00,West,281,0.0,1.0,93,0.00,,,0.21,,2013-07-26 02:43:00,
2013-07-25 22:12:00,74.0,73.0,-100.00,NW,310,0.0,0.0,96,0.00,,,0.21,,2013-07-26 03:12:00,
2013-07-25 22:22:00,74.0,73.0,-100.00,NW,310,0.0,0.0,96,0.00,,,0.21,,2013-07-26 03:22:00,
2013-07-25 22:32:00,74.0,73.0,-100.00,NW,310,0.0,0.0,96,0.00,,,0.21,,2013-07-26 03:32:00,
2013-07-25 22:43:00,74.0,73.0,-100.00,NW,310,0.0,0.0,96,0.00,,,0.21,,2013-07-26 03:43:00,
2013-07-25 23:12:00,74.0,73.0,-100.00,NNW,327,0.0,0.0,98,0.00,,,0.21,,2013-07-26 04:12:00,
2013-07-25 23:22:00,74.0,73.0,-100.00,NNW,327,0.0,0.0,98,0.00,,,0.21,,2013-07-26 04:22:00,
2013-07-25 23:32:00,74.0,73.0,-100.00,NNW,327,0.0,0.0,98,0.00,,,0.21,,2013-07-26 04:32:00,
2013-07-25 23:42:00,74.0,73.0,-100.00,NNW,327,0.0,0.0,98,0.00,,,0.21,,2013-07-26 04:42:00,